• Join FlightAware (Why Join?)
  • Login
  • US Flag 
12:54PM EDT


 

Airport Tracker/Info


-or-


 

Live Flight TrackerFlight Track Log ✈ N2317S ✈ 19-Jun-2013 ✈ KBTV - KOXC

Flight Track Log - Related Links

Times and Time Zones

All times are in EDT time to prevent confusion due to time zone crossing. See the N2317S flight status page for this flight to view local times or setup timezone preferences in your user account.

Time Position Orientation Groundspeed Altitude Reporting Facility
EDT Latitude Longitude Course Direction KTS MPH feet Rate Location/Type
08:53AM 44.1660 -73.1500 180° South  Level FlightAware Approximate
08:54AM 44.1158 -73.1500 180° South  Level FlightAware Approximate
08:55AM 44.0658 -73.1469 176° South  Level FlightAware Approximate
08:56AM 44.0158 -73.1423 176° South  Level FlightAware Approximate
08:56AM 44.2006 -73.2075 180° South 173 199 7,000  Level Boston Center
08:57AM 43.9658 -73.1378 176° South  Level FlightAware Approximate
08:57AM 44.1567 -73.2069 179° South 168 193 7,700  Level Boston Center
08:58AM 43.9157 -73.1333 180° South  Level FlightAware Approximate
08:58AM 44.1131 -73.2064 179° South 162 186 8,100  Level Boston Center
08:59AM 43.8656 -73.1333 180° South  Level FlightAware Approximate
08:59AM 44.0631 -73.2028 177° South 162 186 8,200  Level Boston Center
09:00AM 43.8155 -73.1333 180° South  Level FlightAware Approximate
09:00AM 44.0086 -73.2050 182° South 172 198 8,900  Level Boston Center
09:01AM 43.7654 -73.1333 180° South  Level FlightAware Approximate
09:01AM 43.9631 -73.2017 177° South 172 198 9,500  Level Boston Center
09:02AM 43.9192 -73.1981 177° South 172 198 10,100 300 Climbing Boston Center
09:03AM 43.8692 -73.2003 182° South 172 198 10,100  Level Boston Center
09:04AM 43.8150 -73.2025 182° South 190 219 10,100  Level Boston Center
09:05AM 43.7628 -73.1992 177° South 190 219 10,100  Level Boston Center
09:06AM 43.7233 -73.1986 179° South 190 219 10,100 -60 Level Boston Center
09:07AM 43.6650 -73.1950 177° South 195 224 10,000 -60 Descending Boston Center
09:08AM 43.6128 -73.1942 179° South 195 224 10,000  Level Boston Center
09:09AM 43.5608 -73.1908 177° South 195 224 10,000  Level Boston Center
09:10AM 43.5108 -73.1900 179° South 195 224 10,000  Level Boston Center
09:11AM 43.4650 -73.1894 179° South 185 213 10,000  Level Boston Center
09:12AM 43.4150 -73.1861 177° South 186 214 10,000 -60 Level Boston Center
09:13AM 43.3628 -73.1883 182° South 183 211 9,900 -60 Descending Boston Center
09:14AM 43.3147 -73.2047 194° South 183 211 9,900  Level Boston Center
09:15AM 43.2522 -73.2211 191° South 190 219 10,000  Climbing Boston Center
09:16AM 43.2083 -73.2319 190° South 184 212 10,000  Level Boston Center
09:17AM 43.1561 -73.2483 193° South 186 214 10,000  Level Boston Center
09:18AM 43.1039 -73.2619 191° South 189 217 10,000  Level Boston Center
09:19AM 43.0539 -73.2756 191° South 187 215 10,000  Level Boston Center
09:20AM 42.9994 -73.2889 190° South 185 213 10,000  Level Boston Center
09:21AM 42.9472 -73.3022 191° South 186 214 10,000  Level Boston Center
09:22AM 42.8994 -73.3131 189° South 185 213 10,000  Level Boston Center
09:23AM 42.8514 -73.3294 194° South 185 213 10,000  Level Boston Center
09:24AM 42.8011 -73.3400 189° South 185 213 10,000  Level Boston Center
09:25AM 42.7511 -73.3533 191° South 182 209 10,000  Level Boston Center
09:26AM 42.7008 -73.3667 191° South 182 209 10,000  Level Boston Center
09:27AM 42.6508 -73.3800 191° South 183 211 10,000  Level Boston Center
09:28AM 42.6028 -73.3906 189° South 189 217 10,000  Level Boston Center
09:29AM 42.5547 -73.4011 189° South 200 230 10,000  Level Boston Center
09:30AM 42.5086 -73.4175 195° South 190 219 10,000  Level Boston Center
09:31AM 42.4628 -73.4281 190° South 185 213 10,000  Level Boston Center
09:32AM 42.4169 -73.4383 189° South 185 213 10,000  Level Boston Center
09:33AM 42.3625 -73.4544 192° South 185 213 10,000  Level Boston Center
09:34AM 42.3122 -73.4706 193° South 185 213 10,000  Level Boston Center
09:35AM 42.2600 -73.4836 190° South 185 213 10,000 -60 Level Boston Center
09:36AM 42.2100 -73.4969 191° South 185 213 9,900  Descending Boston Center
09:37AM 42.1578 -73.5100 190° South 185 213 10,000  Climbing Boston Center
09:38AM 42.1078 -73.5203 189° South 185 213 10,000  Level Boston Center
09:39AM 42.0533 -73.5333 190° South 185 213 10,000  Level Boston Center
09:40AM 42.0075 -73.5436 189° South 178 205 10,000 -180 Level Boston Center
09:41AM 41.9511 -73.5483 184° South 183 211 9,700 -360 Descending Boston Center
09:42AM 41.8825 -73.5386 174° South 201 231 9,300 -300 Descending Boston Center
09:43AM 41.8344 -73.5322 174° South 201 231 9,100 -300 Descending Boston Center
09:44AM 41.7719 -73.5228 174° South 201 231 8,700 -360 Descending Boston Center
09:45AM 41.7242 -73.5164 174° South 201 231 8,400 -300 Descending Boston Center
09:46AM 41.6783 -73.5103 174° South 201 231 8,200 -420 Descending Boston Center
09:48AM 41.5500 -73.5000 177° South 201 231 7,300 -540 Descending New York TRACON
09:49AM 41.5000 -73.4500 143° Southeast 204 235 6,700 -600 Descending New York TRACON
09:50AM 41.4833 -73.3833 108° East 201 231 6,100 -660 Descending New York TRACON
09:51AM 41.4667 -73.3167 108° East 180 207 5,400 -660 Descending New York TRACON
09:52AM 41.4500 -73.2667 114° Southeast 163 188 4,800 -660 Descending New York TRACON
09:53AM 41.4333 -73.2167 114° Southeast 136 157 4,100 -960 Descending New York TRACON
09:54AM 41.4333 -73.1667 90° East 131 151 3,000 -1,260 Descending New York TRACON
09:55AM 41.4333 -73.1333 90° East 117 135 1,600 -1,020 Descending New York TRACON
09:56AM 41.4667 -73.1333 360° North 108 124 1,000 -660 Descending New York TRACON